In Rescue
 
Open Full Screen Window  High Contrast Mode
July 22, 2019 11:55 PM CDT
Weather Information
Wind Direction
  ---
Wind Speed
  00 kt (0 mph)
Wind Gust
  00 kt (0 mph)
Altimeter
30.26 in
Visibility
10 SM
Temperature
14° C
57° F
Dewpoint
12° C
54° F
Humidity
88%
1hr Rain Fall
00.00 in.
24hr Rain Fall
00.00 in.
Sky Condition
Clear
VFR

METAR KD39 230455Z AUTO 00000KT 10SM CLR 14/12 A3026 RMK AO2 T01420122

FAA Disclaimer: The data displayed is for advisory purposes only and is not to be used for flight planning or operations.